sensor_id;sensor_type;location;lat;lon;timestamp;P1;durP1;ratioP1;P2;durP2;ratioP2
12852;SDS011;6495;51.808;7.478;2023-04-07T00:01:04;3.83;;;3.33;;
12852;SDS011;6495;51.808;7.478;2023-04-07T00:03:53;5.23;;;3.80;;
12852;SDS011;6495;51.808;7.478;2023-04-07T00:06:42;6.63;;;3.87;;
12852;SDS011;6495;51.808;7.478;2023-04-07T00:09:31;5.87;;;4.07;;
12852;SDS011;6495;51.808;7.478;2023-04-07T00:12:20;4.20;;;3.13;;
12852;SDS011;6495;51.808;7.478;2023-04-07T00:15:10;4.80;;;3.80;;
12852;SDS011;6495;51.808;7.478;2023-04-07T00:17:59;5.63;;;3.87;;
12852;SDS011;6495;51.808;7.478;2023-04-07T00:20:48;5.27;;;3.90;;
12852;SDS011;6495;51.808;7.478;2023-04-07T00:23:39;5.00;;;4.07;;
12852;SDS011;6495;51.808;7.478;2023-04-07T00:26:28;4.87;;;3.60;;
12852;SDS011;6495;51.808;7.478;2023-04-07T00:29:19;5.13;;;3.80;;
12852;SDS011;6495;51.808;7.478;2023-04-07T00:32:09;5.40;;;3.53;;
12852;SDS011;6495;51.808;7.478;2023-04-07T00:34:58;6.63;;;3.93;;
12852;SDS011;6495;51.808;7.478;2023-04-07T00:37:48;5.43;;;3.57;;
12852;SDS011;6495;51.808;7.478;2023-04-07T00:40:37;5.70;;;3.97;;
12852;SDS011;6495;51.808;7.478;2023-04-07T00:43:28;6.07;;;3.70;;
12852;SDS011;6495;51.808;7.478;2023-04-07T00:46:20;5.20;;;3.50;;
12852;SDS011;6495;51.808;7.478;2023-04-07T00:49:11;6.47;;;3.50;;
12852;SDS011;6495;51.808;7.478;2023-04-07T00:52:00;7.00;;;4.37;;
12852;SDS011;6495;51.808;7.478;2023-04-07T00:54:49;7.57;;;4.33;;
12852;SDS011;6495;51.808;7.478;2023-04-07T00:57:38;4.53;;;3.60;;
12852;SDS011;6495;51.808;7.478;2023-04-07T01:00:27;5.57;;;4.17;;
12852;SDS011;6495;51.808;7.478;2023-04-07T01:03:19;6.67;;;3.63;;
12852;SDS011;6495;51.808;7.478;2023-04-07T01:06:21;6.37;;;3.80;;
12852;SDS011;6495;51.808;7.478;2023-04-07T01:09:17;5.93;;;4.33;;
12852;SDS011;6495;51.808;7.478;2023-04-07T01:12:11;6.67;;;3.67;;
12852;SDS011;6495;51.808;7.478;2023-04-07T01:15:11;5.63;;;3.53;;
12852;SDS011;6495;51.808;7.478;2023-04-07T01:18:05;5.10;;;3.90;;
12852;SDS011;6495;51.808;7.478;2023-04-07T01:21:04;5.00;;;3.40;;
12852;SDS011;6495;51.808;7.478;2023-04-07T01:24:02;6.50;;;4.00;;
12852;SDS011;6495;51.808;7.478;2023-04-07T01:27:20;6.57;;;3.47;;
12852;SDS011;6495;51.808;7.478;2023-04-07T01:30:24;5.63;;;3.87;;
12852;SDS011;6495;51.808;7.478;2023-04-07T01:33:18;5.53;;;3.87;;
12852;SDS011;6495;51.808;7.478;2023-04-07T01:36:08;6.13;;;4.17;;
12852;SDS011;6495;51.808;7.478;2023-04-07T01:38:58;5.77;;;3.80;;
12852;SDS011;6495;51.808;7.478;2023-04-07T01:41:48;5.10;;;3.83;;
12852;SDS011;6495;51.808;7.478;2023-04-07T01:44:38;5.60;;;3.87;;
12852;SDS011;6495;51.808;7.478;2023-04-07T01:47:32;4.67;;;3.50;;
12852;SDS011;6495;51.808;7.478;2023-04-07T01:50:24;3.40;;;2.90;;
12852;SDS011;6495;51.808;7.478;2023-04-07T01:53:16;5.50;;;3.60;;
12852;SDS011;6495;51.808;7.478;2023-04-07T01:56:06;5.00;;;3.80;;
12852;SDS011;6495;51.808;7.478;2023-04-07T01:58:56;5.23;;;3.87;;
12852;SDS011;6495;51.808;7.478;2023-04-07T02:01:45;5.33;;;3.70;;
12852;SDS011;6495;51.808;7.478;2023-04-07T02:04:42;5.67;;;4.27;;
12852;SDS011;6495;51.808;7.478;2023-04-07T02:07:40;5.70;;;3.80;;
12852;SDS011;6495;51.808;7.478;2023-04-07T02:10:37;5.80;;;3.80;;
12852;SDS011;6495;51.808;7.478;2023-04-07T02:13:27;6.30;;;4.07;;
12852;SDS011;6495;51.808;7.478;2023-04-07T02:16:17;4.83;;;3.73;;
12852;SDS011;6495;51.808;7.478;2023-04-07T02:19:15;4.87;;;3.80;;
12852;SDS011;6495;51.808;7.478;2023-04-07T02:22:05;5.07;;;3.80;;
12852;SDS011;6495;51.808;7.478;2023-04-07T02:24:55;5.03;;;3.70;;
12852;SDS011;6495;51.808;7.478;2023-04-07T02:27:45;5.87;;;3.90;;
12852;SDS011;6495;51.808;7.478;2023-04-07T02:30:34;5.97;;;4.13;;
12852;SDS011;6495;51.808;7.478;2023-04-07T02:33:25;5.20;;;3.90;;
12852;SDS011;6495;51.808;7.478;2023-04-07T02:36:14;4.37;;;3.97;;
12852;SDS011;6495;51.808;7.478;2023-04-07T02:39:04;5.23;;;3.47;;
12852;SDS011;6495;51.808;7.478;2023-04-07T02:41:53;5.83;;;4.23;;
12852;SDS011;6495;51.808;7.478;2023-04-07T02:44:41;4.77;;;3.50;;
12852;SDS011;6495;51.808;7.478;2023-04-07T02:47:30;5.10;;;3.60;;
12852;SDS011;6495;51.808;7.478;2023-04-07T02:50:20;7.07;;;4.43;;
12852;SDS011;6495;51.808;7.478;2023-04-07T02:53:09;7.07;;;3.70;;
12852;SDS011;6495;51.808;7.478;2023-04-07T02:56:00;5.03;;;3.60;;
12852;SDS011;6495;51.808;7.478;2023-04-07T02:58:49;5.20;;;3.83;;
12852;SDS011;6495;51.808;7.478;2023-04-07T03:01:40;5.03;;;3.83;;
12852;SDS011;6495;51.808;7.478;2023-04-07T03:04:29;5.30;;;4.00;;
12852;SDS011;6495;51.808;7.478;2023-04-07T03:07:19;7.47;;;3.90;;
12852;SDS011;6495;51.808;7.478;2023-04-07T03:10:09;5.90;;;4.30;;
12852;SDS011;6495;51.808;7.478;2023-04-07T03:12:59;7.00;;;4.17;;
12852;SDS011;6495;51.808;7.478;2023-04-07T03:15:49;6.10;;;4.50;;
12852;SDS011;6495;51.808;7.478;2023-04-07T03:18:38;5.27;;;4.33;;
12852;SDS011;6495;51.808;7.478;2023-04-07T03:21:27;5.53;;;4.00;;
12852;SDS011;6495;51.808;7.478;2023-04-07T03:24:21;6.67;;;4.13;;
12852;SDS011;6495;51.808;7.478;2023-04-07T03:27:09;6.87;;;4.43;;
12852;SDS011;6495;51.808;7.478;2023-04-07T03:30:05;6.10;;;4.00;;
12852;SDS011;6495;51.808;7.478;2023-04-07T03:32:55;6.77;;;4.77;;
12852;SDS011;6495;51.808;7.478;2023-04-07T03:35:44;6.97;;;4.73;;
12852;SDS011;6495;51.808;7.478;2023-04-07T03:38:33;4.97;;;4.43;;
12852;SDS011;6495;51.808;7.478;2023-04-07T03:41:29;5.60;;;4.27;;
12852;SDS011;6495;51.808;7.478;2023-04-07T03:44:18;6.87;;;4.70;;
12852;SDS011;6495;51.808;7.478;2023-04-07T03:47:08;6.17;;;3.97;;
12852;SDS011;6495;51.808;7.478;2023-04-07T03:49:57;6.93;;;4.70;;
12852;SDS011;6495;51.808;7.478;2023-04-07T03:52:49;6.43;;;4.80;;
12852;SDS011;6495;51.808;7.478;2023-04-07T03:55:44;6.63;;;3.90;;
12852;SDS011;6495;51.808;7.478;2023-04-07T03:58:41;6.20;;;4.03;;
12852;SDS011;6495;51.808;7.478;2023-04-07T04:01:35;5.53;;;3.67;;
12852;SDS011;6495;51.808;7.478;2023-04-07T04:04:31;6.97;;;4.00;;
12852;SDS011;6495;51.808;7.478;2023-04-07T04:07:20;7.70;;;4.40;;
12852;SDS011;6495;51.808;7.478;2023-04-07T04:10:11;5.60;;;4.27;;
12852;SDS011;6495;51.808;7.478;2023-04-07T04:13:06;6.77;;;4.00;;
12852;SDS011;6495;51.808;7.478;2023-04-07T04:15:54;6.07;;;4.20;;
12852;SDS011;6495;51.808;7.478;2023-04-07T04:18:46;4.87;;;3.67;;
12852;SDS011;6495;51.808;7.478;2023-04-07T04:21:37;7.30;;;4.13;;
12852;SDS011;6495;51.808;7.478;2023-04-07T04:24:26;5.37;;;3.90;;
12852;SDS011;6495;51.808;7.478;2023-04-07T04:27:19;4.60;;;3.27;;
12852;SDS011;6495;51.808;7.478;2023-04-07T04:30:14;7.63;;;4.30;;
12852;SDS011;6495;51.808;7.478;2023-04-07T04:33:12;5.87;;;3.93;;
12852;SDS011;6495;51.808;7.478;2023-04-07T04:36:21;4.77;;;3.70;;
12852;SDS011;6495;51.808;7.478;2023-04-07T04:39:16;7.07;;;4.43;;
12852;SDS011;6495;51.808;7.478;2023-04-07T04:42:05;5.97;;;3.87;;
12852;SDS011;6495;51.808;7.478;2023-04-07T04:44:55;5.53;;;3.97;;
12852;SDS011;6495;51.808;7.478;2023-04-07T04:47:45;5.50;;;4.00;;
12852;SDS011;6495;51.808;7.478;2023-04-07T04:50:35;5.70;;;3.97;;
12852;SDS011;6495;51.808;7.478;2023-04-07T04:53:28;6.30;;;4.13;;
12852;SDS011;6495;51.808;7.478;2023-04-07T04:56:21;6.13;;;4.10;;
12852;SDS011;6495;51.808;7.478;2023-04-07T04:59:10;6.67;;;4.37;;
12852;SDS011;6495;51.808;7.478;2023-04-07T05:02:09;5.90;;;4.00;;
12852;SDS011;6495;51.808;7.478;2023-04-07T05:04:58;6.67;;;4.73;;
12852;SDS011;6495;51.808;7.478;2023-04-07T05:07:48;6.30;;;4.10;;
12852;SDS011;6495;51.808;7.478;2023-04-07T05:10:37;5.13;;;4.03;;
12852;SDS011;6495;51.808;7.478;2023-04-07T05:13:32;6.20;;;4.23;;
12852;SDS011;6495;51.808;7.478;2023-04-07T05:16:22;4.80;;;3.80;;
12852;SDS011;6495;51.808;7.478;2023-04-07T05:19:11;6.13;;;3.60;;
12852;SDS011;6495;51.808;7.478;2023-04-07T05:22:00;4.70;;;3.50;;
12852;SDS011;6495;51.808;7.478;2023-04-07T05:25:00;6.00;;;3.70;;
12852;SDS011;6495;51.808;7.478;2023-04-07T05:27:49;6.17;;;3.83;;
12852;SDS011;6495;51.808;7.478;2023-04-07T05:30:38;5.30;;;3.87;;
12852;SDS011;6495;51.808;7.478;2023-04-07T05:33:27;5.30;;;3.47;;
12852;SDS011;6495;51.808;7.478;2023-04-07T05:36:16;6.47;;;3.97;;
12852;SDS011;6495;51.808;7.478;2023-04-07T05:39:05;4.87;;;3.57;;
12852;SDS011;6495;51.808;7.478;2023-04-07T05:42:00;4.40;;;3.27;;
12852;SDS011;6495;51.808;7.478;2023-04-07T05:48:42;4.43;;;3.50;;
12852;SDS011;6495;51.808;7.478;2023-04-07T05:52:08;3.97;;;2.83;;
12852;SDS011;6495;51.808;7.478;2023-04-07T05:55:11;5.33;;;3.20;;
12852;SDS011;6495;51.808;7.478;2023-04-07T05:58:20;5.33;;;3.57;;
12852;SDS011;6495;51.808;7.478;2023-04-07T06:01:18;5.00;;;3.33;;
12852;SDS011;6495;51.808;7.478;2023-04-07T06:04:29;4.63;;;3.47;;
12852;SDS011;6495;51.808;7.478;2023-04-07T06:07:23;3.87;;;2.87;;
12852;SDS011;6495;51.808;7.478;2023-04-07T06:10:19;4.17;;;3.63;;
12852;SDS011;6495;51.808;7.478;2023-04-07T06:13:20;4.60;;;3.50;;
12852;SDS011;6495;51.808;7.478;2023-04-07T06:16:21;4.07;;;3.37;;
12852;SDS011;6495;51.808;7.478;2023-04-07T06:19:10;4.53;;;3.23;;
12852;SDS011;6495;51.808;7.478;2023-04-07T06:22:04;4.77;;;3.43;;
12852;SDS011;6495;51.808;7.478;2023-04-07T06:25:02;4.57;;;3.30;;
12852;SDS011;6495;51.808;7.478;2023-04-07T06:27:52;4.73;;;3.00;;
12852;SDS011;6495;51.808;7.478;2023-04-07T06:30:42;4.63;;;3.60;;
12852;SDS011;6495;51.808;7.478;2023-04-07T06:33:33;4.63;;;3.20;;
12852;SDS011;6495;51.808;7.478;2023-04-07T06:36:21;4.10;;;3.17;;
12852;SDS011;6495;51.808;7.478;2023-04-07T06:39:13;3.73;;;2.90;;
12852;SDS011;6495;51.808;7.478;2023-04-07T06:42:03;3.90;;;2.73;;
12852;SDS011;6495;51.808;7.478;2023-04-07T06:44:56;2.93;;;2.57;;
12852;SDS011;6495;51.808;7.478;2023-04-07T06:47:45;5.13;;;3.20;;
12852;SDS011;6495;51.808;7.478;2023-04-07T06:50:34;3.20;;;2.43;;
12852;SDS011;6495;51.808;7.478;2023-04-07T06:53:37;3.93;;;3.13;;
12852;SDS011;6495;51.808;7.478;2023-04-07T07:00:00;4.50;;;2.73;;
12852;SDS011;6495;51.808;7.478;2023-04-07T07:02:55;4.17;;;2.70;;
12852;SDS011;6495;51.808;7.478;2023-04-07T07:06:03;3.67;;;2.87;;
12852;SDS011;6495;51.808;7.478;2023-04-07T07:09:14;3.57;;;2.60;;
12852;SDS011;6495;51.808;7.478;2023-04-07T07:12:41;3.43;;;2.83;;
12852;SDS011;6495;51.808;7.478;2023-04-07T07:15:43;2.43;;;2.23;;
12852;SDS011;6495;51.808;7.478;2023-04-07T07:18:37;4.37;;;3.00;;
12852;SDS011;6495;51.808;7.478;2023-04-07T07:21:36;5.23;;;2.70;;
12852;SDS011;6495;51.808;7.478;2023-04-07T07:24:45;3.83;;;2.47;;
12852;SDS011;6495;51.808;7.478;2023-04-07T07:27:52;4.20;;;2.93;;
12852;SDS011;6495;51.808;7.478;2023-04-07T07:30:57;4.27;;;2.70;;
12852;SDS011;6495;51.808;7.478;2023-04-07T07:33:46;2.90;;;2.53;;
12852;SDS011;6495;51.808;7.478;2023-04-07T07:36:37;3.90;;;2.57;;
12852;SDS011;6495;51.808;7.478;2023-04-07T07:39:25;3.87;;;2.73;;
12852;SDS011;6495;51.808;7.478;2023-04-07T07:42:15;3.57;;;2.20;;
12852;SDS011;6495;51.808;7.478;2023-04-07T07:45:05;3.60;;;2.43;;
12852;SDS011;6495;51.808;7.478;2023-04-07T07:47:55;3.37;;;2.63;;
12852;SDS011;6495;51.808;7.478;2023-04-07T07:50:43;4.23;;;2.90;;
12852;SDS011;6495;51.808;7.478;2023-04-07T07:53:32;3.90;;;2.47;;
12852;SDS011;6495;51.808;7.478;2023-04-07T07:56:21;3.07;;;2.50;;
12852;SDS011;6495;51.808;7.478;2023-04-07T07:59:10;6.67;;;2.60;;
12852;SDS011;6495;51.808;7.478;2023-04-07T08:01:59;4.43;;;2.83;;
12852;SDS011;6495;51.808;7.478;2023-04-07T08:04:48;3.60;;;2.60;;
12852;SDS011;6495;51.808;7.478;2023-04-07T08:07:37;2.63;;;2.30;;
12852;SDS011;6495;51.808;7.478;2023-04-07T08:10:25;3.47;;;2.70;;
12852;SDS011;6495;51.808;7.478;2023-04-07T08:13:14;3.43;;;2.27;;
12852;SDS011;6495;51.808;7.478;2023-04-07T08:16:19;2.72;;;2.53;;
12852;SDS011;6495;51.808;7.478;2023-04-07T08:19:17;4.77;;;2.87;;
12852;SDS011;6495;51.808;7.478;2023-04-07T08:22:12;3.30;;;2.43;;
12852;SDS011;6495;51.808;7.478;2023-04-07T08:25:01;3.43;;;2.80;;
12852;SDS011;6495;51.808;7.478;2023-04-07T08:27:56;3.40;;;2.90;;
12852;SDS011;6495;51.808;7.478;2023-04-07T08:34:40;4.13;;;2.33;;
12852;SDS011;6495;51.808;7.478;2023-04-07T08:37:29;3.73;;;2.63;;
12852;SDS011;6495;51.808;7.478;2023-04-07T08:40:17;4.28;;;2.53;;
12852;SDS011;6495;51.808;7.478;2023-04-07T08:43:07;6.23;;;2.23;;
12852;SDS011;6495;51.808;7.478;2023-04-07T08:45:56;2.70;;;2.30;;
12852;SDS011;6495;51.808;7.478;2023-04-07T08:48:47;2.60;;;1.97;;
12852;SDS011;6495;51.808;7.478;2023-04-07T08:51:42;3.63;;;2.50;;
12852;SDS011;6495;51.808;7.478;2023-04-07T08:54:34;4.17;;;2.77;;
12852;SDS011;6495;51.808;7.478;2023-04-07T08:57:22;3.83;;;2.53;;
12852;SDS011;6495;51.808;7.478;2023-04-07T09:00:11;3.20;;;2.45;;
12852;SDS011;6495;51.808;7.478;2023-04-07T09:03:01;3.50;;;2.35;;
12852;SDS011;6495;51.808;7.478;2023-04-07T09:05:51;3.67;;;2.73;;
12852;SDS011;6495;51.808;7.478;2023-04-07T09:08:43;3.15;;;2.50;;
12852;SDS011;6495;51.808;7.478;2023-04-07T09:11:33;4.57;;;2.07;;
12852;SDS011;6495;51.808;7.478;2023-04-07T09:14:26;3.85;;;1.98;;
12852;SDS011;6495;51.808;7.478;2023-04-07T09:17:15;3.53;;;2.40;;
12852;SDS011;6495;51.808;7.478;2023-04-07T09:20:04;4.68;;;2.70;;
12852;SDS011;6495;51.808;7.478;2023-04-07T09:22:53;2.83;;;2.40;;
12852;SDS011;6495;51.808;7.478;2023-04-07T09:25:57;5.30;;;2.60;;
12852;SDS011;6495;51.808;7.478;2023-04-07T09:28:50;2.72;;;2.25;;
12852;SDS011;6495;51.808;7.478;2023-04-07T09:34:50;3.33;;;2.30;;
12852;SDS011;6495;51.808;7.478;2023-04-07T09:37:50;2.78;;;2.10;;
12852;SDS011;6495;51.808;7.478;2023-04-07T09:40:50;2.90;;;2.00;;
12852;SDS011;6495;51.808;7.478;2023-04-07T09:43:55;3.78;;;2.20;;
12852;SDS011;6495;51.808;7.478;2023-04-07T09:46:47;3.03;;;1.80;;
12852;SDS011;6495;51.808;7.478;2023-04-07T09:49:47;2.60;;;1.90;;
12852;SDS011;6495;51.808;7.478;2023-04-07T09:52:49;2.28;;;1.90;;
12852;SDS011;6495;51.808;7.478;2023-04-07T09:55:39;2.55;;;2.00;;
12852;SDS011;6495;51.808;7.478;2023-04-07T09:58:28;2.00;;;1.80;;
12852;SDS011;6495;51.808;7.478;2023-04-07T10:01:19;3.17;;;2.47;;
12852;SDS011;6495;51.808;7.478;2023-04-07T10:04:08;2.78;;;2.40;;
12852;SDS011;6495;51.808;7.478;2023-04-07T10:06:58;3.40;;;2.10;;
12852;SDS011;6495;51.808;7.478;2023-04-07T10:09:51;3.08;;;2.20;;
12852;SDS011;6495;51.808;7.478;2023-04-07T10:12:40;3.70;;;1.90;;
12852;SDS011;6495;51.808;7.478;2023-04-07T10:15:30;5.18;;;2.20;;
12852;SDS011;6495;51.808;7.478;2023-04-07T10:18:20;3.08;;;2.58;;
12852;SDS011;6495;51.808;7.478;2023-04-07T10:21:15;3.35;;;2.85;;
12852;SDS011;6495;51.808;7.478;2023-04-07T10:24:04;2.60;;;2.40;;
12852;SDS011;6495;51.808;7.478;2023-04-07T10:27:09;3.45;;;2.78;;
12852;SDS011;6495;51.808;7.478;2023-04-07T10:30:04;2.97;;;2.30;;
12852;SDS011;6495;51.808;7.478;2023-04-07T10:33:03;2.78;;;2.17;;
12852;SDS011;6495;51.808;7.478;2023-04-07T10:36:03;3.08;;;2.78;;
12852;SDS011;6495;51.808;7.478;2023-04-07T10:45:51;3.35;;;2.90;;
12852;SDS011;6495;51.808;7.478;2023-04-07T10:48:56;4.35;;;3.47;;
12852;SDS011;6495;51.808;7.478;2023-04-07T10:55:30;4.73;;;3.87;;
12852;SDS011;6495;51.808;7.478;2023-04-07T10:58:22;4.40;;;3.88;;
12852;SDS011;6495;51.808;7.478;2023-04-07T11:01:15;4.70;;;3.90;;
12852;SDS011;6495;51.808;7.478;2023-04-07T11:04:21;4.47;;;3.90;;
12852;SDS011;6495;51.808;7.478;2023-04-07T11:07:46;5.45;;;4.22;;
12852;SDS011;6495;51.808;7.478;2023-04-07T11:16:48;4.10;;;3.70;;
12852;SDS011;6495;51.808;7.478;2023-04-07T11:19:49;5.45;;;4.25;;
12852;SDS011;6495;51.808;7.478;2023-04-07T11:22:44;5.90;;;4.93;;
12852;SDS011;6495;51.808;7.478;2023-04-07T11:25:48;4.45;;;3.90;;
12852;SDS011;6495;51.808;7.478;2023-04-07T11:28:43;4.15;;;3.38;;
12852;SDS011;6495;51.808;7.478;2023-04-07T11:31:34;5.28;;;4.05;;
12852;SDS011;6495;51.808;7.478;2023-04-07T11:34:27;5.10;;;3.80;;
12852;SDS011;6495;51.808;7.478;2023-04-07T11:37:17;4.50;;;3.70;;
12852;SDS011;6495;51.808;7.478;2023-04-07T11:40:09;4.13;;;3.65;;
12852;SDS011;6495;51.808;7.478;2023-04-07T11:43:00;4.25;;;3.50;;
12852;SDS011;6495;51.808;7.478;2023-04-07T11:46:05;5.53;;;4.13;;
12852;SDS011;6495;51.808;7.478;2023-04-07T11:49:06;5.05;;;3.60;;
12852;SDS011;6495;51.808;7.478;2023-04-07T11:51:57;4.90;;;4.10;;
12852;SDS011;6495;51.808;7.478;2023-04-07T11:58:37;5.32;;;3.88;;
12852;SDS011;6495;51.808;7.478;2023-04-07T12:01:39;3.38;;;3.08;;
12852;SDS011;6495;51.808;7.478;2023-04-07T12:04:28;3.92;;;3.35;;
12852;SDS011;6495;51.808;7.478;2023-04-07T12:07:18;3.28;;;2.97;;
12852;SDS011;6495;51.808;7.478;2023-04-07T12:13:12;3.63;;;2.95;;
12852;SDS011;6495;51.808;7.478;2023-04-07T12:16:01;2.60;;;2.40;;
12852;SDS011;6495;51.808;7.478;2023-04-07T12:23:04;2.92;;;2.33;;
12852;SDS011;6495;51.808;7.478;2023-04-07T12:25:53;2.45;;;2.17;;
12852;SDS011;6495;51.808;7.478;2023-04-07T12:28:42;2.28;;;2.00;;
12852;SDS011;6495;51.808;7.478;2023-04-07T12:31:31;3.72;;;2.00;;
12852;SDS011;6495;51.808;7.478;2023-04-07T12:34:20;3.13;;;1.70;;
12852;SDS011;6495;51.808;7.478;2023-04-07T12:37:08;2.50;;;2.10;;
12852;SDS011;6495;51.808;7.478;2023-04-07T12:39:57;2.65;;;2.10;;
12852;SDS011;6495;51.808;7.478;2023-04-07T12:42:49;2.55;;;1.83;;
12852;SDS011;6495;51.808;7.478;2023-04-07T12:45:38;2.30;;;1.87;;
12852;SDS011;6495;51.808;7.478;2023-04-07T12:48:27;2.80;;;1.90;;
12852;SDS011;6495;51.808;7.478;2023-04-07T12:51:15;3.00;;;2.35;;
12852;SDS011;6495;51.808;7.478;2023-04-07T12:54:04;3.13;;;2.10;;
12852;SDS011;6495;51.808;7.478;2023-04-07T12:56:53;1.95;;;1.75;;
12852;SDS011;6495;51.808;7.478;2023-04-07T12:59:43;2.70;;;2.05;;
12852;SDS011;6495;51.808;7.478;2023-04-07T13:02:32;2.58;;;1.80;;
12852;SDS011;6495;51.808;7.478;2023-04-07T13:05:22;2.22;;;2.03;;
12852;SDS011;6495;51.808;7.478;2023-04-07T13:08:11;3.28;;;2.53;;
12852;SDS011;6495;51.808;7.478;2023-04-07T13:11:00;2.50;;;2.28;;
12852;SDS011;6495;51.808;7.478;2023-04-07T13:13:50;3.45;;;2.38;;
12852;SDS011;6495;51.808;7.478;2023-04-07T13:16:43;2.67;;;2.47;;
12852;SDS011;6495;51.808;7.478;2023-04-07T13:19:32;3.30;;;2.28;;
12852;SDS011;6495;51.808;7.478;2023-04-07T13:22:23;2.70;;;2.50;;
12852;SDS011;6495;51.808;7.478;2023-04-07T13:25:12;2.85;;;2.50;;
12852;SDS011;6495;51.808;7.478;2023-04-07T13:28:03;3.83;;;2.65;;
12852;SDS011;6495;51.808;7.478;2023-04-07T13:30:52;2.60;;;2.40;;
12852;SDS011;6495;51.808;7.478;2023-04-07T13:33:42;2.97;;;2.45;;
12852;SDS011;6495;51.808;7.478;2023-04-07T13:36:32;2.67;;;2.47;;
12852;SDS011;6495;51.808;7.478;2023-04-07T13:39:20;4.25;;;2.33;;
12852;SDS011;6495;51.808;7.478;2023-04-07T13:42:12;3.17;;;2.30;;
12852;SDS011;6495;51.808;7.478;2023-04-07T13:45:02;2.70;;;2.08;;
12852;SDS011;6495;51.808;7.478;2023-04-07T13:47:52;2.30;;;1.90;;
12852;SDS011;6495;51.808;7.478;2023-04-07T13:50:43;2.35;;;1.88;;
12852;SDS011;6495;51.808;7.478;2023-04-07T13:53:32;2.20;;;1.70;;
12852;SDS011;6495;51.808;7.478;2023-04-07T13:56:21;2.53;;;2.00;;
12852;SDS011;6495;51.808;7.478;2023-04-07T13:59:10;2.13;;;1.90;;
12852;SDS011;6495;51.808;7.478;2023-04-07T14:01:58;2.50;;;2.00;;
12852;SDS011;6495;51.808;7.478;2023-04-07T14:04:47;5.25;;;2.10;;
12852;SDS011;6495;51.808;7.478;2023-04-07T14:07:37;4.22;;;2.05;;
12852;SDS011;6495;51.808;7.478;2023-04-07T14:10:25;2.88;;;2.35;;
12852;SDS011;6495;51.808;7.478;2023-04-07T14:13:14;2.70;;;2.17;;
12852;SDS011;6495;51.808;7.478;2023-04-07T14:16:03;3.05;;;2.67;;
12852;SDS011;6495;51.808;7.478;2023-04-07T14:18:53;3.30;;;2.88;;
12852;SDS011;6495;51.808;7.478;2023-04-07T14:21:42;3.00;;;2.67;;
12852;SDS011;6495;51.808;7.478;2023-04-07T14:24:32;2.92;;;2.53;;
12852;SDS011;6495;51.808;7.478;2023-04-07T14:27:21;2.67;;;2.38;;
12852;SDS011;6495;51.808;7.478;2023-04-07T14:30:10;3.00;;;2.53;;
12852;SDS011;6495;51.808;7.478;2023-04-07T14:32:59;3.65;;;3.08;;
12852;SDS011;6495;51.808;7.478;2023-04-07T14:35:50;3.08;;;2.30;;
12852;SDS011;6495;51.808;7.478;2023-04-07T14:38:39;2.47;;;2.28;;
12852;SDS011;6495;51.808;7.478;2023-04-07T14:41:29;2.83;;;2.53;;
12852;SDS011;6495;51.808;7.478;2023-04-07T14:44:18;2.70;;;2.45;;
12852;SDS011;6495;51.808;7.478;2023-04-07T14:47:06;2.92;;;2.47;;
12852;SDS011;6495;51.808;7.478;2023-04-07T14:49:57;3.42;;;2.30;;
12852;SDS011;6495;51.808;7.478;2023-04-07T14:52:46;3.20;;;2.45;;
12852;SDS011;6495;51.808;7.478;2023-04-07T14:55:34;2.60;;;2.33;;
12852;SDS011;6495;51.808;7.478;2023-04-07T14:58:24;2.63;;;2.35;;
12852;SDS011;6495;51.808;7.478;2023-04-07T15:01:13;3.35;;;2.83;;
12852;SDS011;6495;51.808;7.478;2023-04-07T15:04:02;2.65;;;2.33;;
12852;SDS011;6495;51.808;7.478;2023-04-07T15:06:51;2.90;;;2.60;;
12852;SDS011;6495;51.808;7.478;2023-04-07T15:09:42;3.42;;;2.75;;
12852;SDS011;6495;51.808;7.478;2023-04-07T15:12:31;3.50;;;2.50;;
12852;SDS011;6495;51.808;7.478;2023-04-07T15:15:20;2.53;;;2.15;;
12852;SDS011;6495;51.808;7.478;2023-04-07T15:18:11;2.42;;;2.22;;
12852;SDS011;6495;51.808;7.478;2023-04-07T15:20:59;2.60;;;2.30;;
12852;SDS011;6495;51.808;7.478;2023-04-07T15:23:48;2.42;;;2.10;;
12852;SDS011;6495;51.808;7.478;2023-04-07T15:26:37;2.67;;;1.95;;
12852;SDS011;6495;51.808;7.478;2023-04-07T15:29:25;2.15;;;1.67;;
12852;SDS011;6495;51.808;7.478;2023-04-07T15:32:15;2.10;;;1.80;;
12852;SDS011;6495;51.808;7.478;2023-04-07T15:35:04;1.83;;;1.65;;
12852;SDS011;6495;51.808;7.478;2023-04-07T15:37:53;1.60;;;1.50;;
12852;SDS011;6495;51.808;7.478;2023-04-07T15:40:42;3.22;;;1.63;;
12852;SDS011;6495;51.808;7.478;2023-04-07T15:43:30;1.75;;;1.60;;
12852;SDS011;6495;51.808;7.478;2023-04-07T15:46:20;2.45;;;1.88;;
12852;SDS011;6495;51.808;7.478;2023-04-07T15:49:10;1.92;;;1.70;;
12852;SDS011;6495;51.808;7.478;2023-04-07T15:51:59;1.98;;;1.83;;
12852;SDS011;6495;51.808;7.478;2023-04-07T15:54:50;2.05;;;1.85;;
12852;SDS011;6495;51.808;7.478;2023-04-07T15:57:39;1.92;;;1.83;;
12852;SDS011;6495;51.808;7.478;2023-04-07T16:00:28;2.35;;;1.70;;
12852;SDS011;6495;51.808;7.478;2023-04-07T16:03:19;1.90;;;1.70;;
12852;SDS011;6495;51.808;7.478;2023-04-07T16:06:10;2.55;;;1.85;;
12852;SDS011;6495;51.808;7.478;2023-04-07T16:08:58;1.98;;;1.60;;
12852;SDS011;6495;51.808;7.478;2023-04-07T16:11:47;2.28;;;2.05;;
12852;SDS011;6495;51.808;7.478;2023-04-07T16:14:35;1.83;;;1.70;;
12852;SDS011;6495;51.808;7.478;2023-04-07T16:17:24;4.10;;;1.83;;
12852;SDS011;6495;51.808;7.478;2023-04-07T16:20:23;1.70;;;1.55;;
12852;SDS011;6495;51.808;7.478;2023-04-07T16:23:13;1.42;;;1.30;;
12852;SDS011;6495;51.808;7.478;2023-04-07T16:26:02;1.92;;;1.73;;
12852;SDS011;6495;51.808;7.478;2023-04-07T16:28:51;2.78;;;1.67;;
12852;SDS011;6495;51.808;7.478;2023-04-07T16:31:39;2.13;;;1.52;;
12852;SDS011;6495;51.808;7.478;2023-04-07T16:34:29;1.60;;;1.48;;
12852;SDS011;6495;51.808;7.478;2023-04-07T16:37:18;1.95;;;1.67;;
12852;SDS011;6495;51.808;7.478;2023-04-07T16:40:08;1.98;;;1.73;;
12852;SDS011;6495;51.808;7.478;2023-04-07T16:42:57;1.75;;;1.58;;
12852;SDS011;6495;51.808;7.478;2023-04-07T16:45:48;1.88;;;1.67;;
12852;SDS011;6495;51.808;7.478;2023-04-07T16:48:37;2.30;;;2.10;;
12852;SDS011;6495;51.808;7.478;2023-04-07T16:51:26;2.70;;;2.25;;
12852;SDS011;6495;51.808;7.478;2023-04-07T16:54:15;2.25;;;1.73;;
12852;SDS011;6495;51.808;7.478;2023-04-07T16:57:05;2.25;;;1.92;;
12852;SDS011;6495;51.808;7.478;2023-04-07T16:59:53;2.03;;;1.70;;
12852;SDS011;6495;51.808;7.478;2023-04-07T17:02:42;7.10;;;1.85;;
12852;SDS011;6495;51.808;7.478;2023-04-07T17:05:30;2.10;;;1.73;;
12852;SDS011;6495;51.808;7.478;2023-04-07T17:08:19;2.00;;;1.80;;
12852;SDS011;6495;51.808;7.478;2023-04-07T17:11:08;2.05;;;1.75;;
12852;SDS011;6495;51.808;7.478;2023-04-07T17:21:25;2.25;;;1.90;;
12852;SDS011;6495;51.808;7.478;2023-04-07T17:24:14;1.70;;;1.58;;
12852;SDS011;6495;51.808;7.478;2023-04-07T17:27:03;1.83;;;1.65;;
12852;SDS011;6495;51.808;7.478;2023-04-07T17:29:52;2.13;;;1.83;;
12852;SDS011;6495;51.808;7.478;2023-04-07T17:32:41;2.13;;;1.90;;
12852;SDS011;6495;51.808;7.478;2023-04-07T17:35:32;2.20;;;1.90;;
12852;SDS011;6495;51.808;7.478;2023-04-07T17:38:21;2.50;;;2.13;;
12852;SDS011;6495;51.808;7.478;2023-04-07T17:41:10;3.15;;;2.30;;
12852;SDS011;6495;51.808;7.478;2023-04-07T17:44:08;2.03;;;1.70;;
12852;SDS011;6495;51.808;7.478;2023-04-07T17:46:57;1.77;;;1.67;;
12852;SDS011;6495;51.808;7.478;2023-04-07T17:49:46;2.83;;;1.98;;
12852;SDS011;6495;51.808;7.478;2023-04-07T17:52:36;4.45;;;1.85;;
12852;SDS011;6495;51.808;7.478;2023-04-07T17:55:25;1.65;;;1.55;;
12852;SDS011;6495;51.808;7.478;2023-04-07T17:58:39;2.10;;;1.90;;
12852;SDS011;6495;51.808;7.478;2023-04-07T18:01:51;3.25;;;2.40;;
12852;SDS011;6495;51.808;7.478;2023-04-07T18:04:41;2.78;;;2.28;;
12852;SDS011;6495;51.808;7.478;2023-04-07T18:07:31;2.75;;;2.35;;
12852;SDS011;6495;51.808;7.478;2023-04-07T18:10:22;2.17;;;1.90;;
12852;SDS011;6495;51.808;7.478;2023-04-07T18:13:11;2.70;;;2.10;;
12852;SDS011;6495;51.808;7.478;2023-04-07T18:16:00;2.72;;;1.75;;
12852;SDS011;6495;51.808;7.478;2023-04-07T18:18:53;2.20;;;1.92;;
12852;SDS011;6495;51.808;7.478;2023-04-07T18:21:42;2.60;;;2.17;;